sensor_id;sensor_type;location;lat;lon;timestamp;pressure;altitude;pressure_sealevel;temperature;humidity
44751;BME280;30477;48.224;11.470;2023-04-02T00:02:24;95266.59;;;7.87;65.06
44751;BME280;30477;48.224;11.470;2023-04-02T00:07:41;95263.66;;;7.82;65.33
44751;BME280;30477;48.224;11.470;2023-04-02T00:13:03;95258.63;;;7.80;65.50
44751;BME280;30477;48.224;11.470;2023-04-02T00:15:30;95265.78;;;7.86;65.38
44751;BME280;30477;48.224;11.470;2023-04-02T00:17:56;95268.06;;;7.89;65.50
44751;BME280;30477;48.224;11.470;2023-04-02T00:20:23;95264.97;;;7.86;65.34
44751;BME280;30477;48.224;11.470;2023-04-02T00:22:49;95268.50;;;7.85;65.35
44751;BME280;30477;48.224;11.470;2023-04-02T00:25:15;95269.03;;;7.88;65.34
44751;BME280;30477;48.224;11.470;2023-04-02T00:27:41;95273.31;;;7.98;65.28
44751;BME280;30477;48.224;11.470;2023-04-02T00:30:07;95271.56;;;7.98;65.32
44751;BME280;30477;48.224;11.470;2023-04-02T00:32:34;95279.00;;;8.01;64.93
44751;BME280;30477;48.224;11.470;2023-04-02T00:35:00;95277.41;;;8.00;64.96
44751;BME280;30477;48.224;11.470;2023-04-02T00:37:27;95276.72;;;7.98;64.90
44751;BME280;30477;48.224;11.470;2023-04-02T00:39:59;95280.69;;;7.92;64.82
44751;BME280;30477;48.224;11.470;2023-04-02T00:42:28;95283.38;;;7.91;64.72
44751;BME280;30477;48.224;11.470;2023-04-02T00:44:55;95273.38;;;7.88;64.93
44751;BME280;30477;48.224;11.470;2023-04-02T00:47:31;95273.88;;;7.91;64.82
44751;BME280;30477;48.224;11.470;2023-04-02T00:50:03;95275.28;;;7.86;65.07
44751;BME280;30477;48.224;11.470;2023-04-02T00:52:30;95271.06;;;7.85;64.94
44751;BME280;30477;48.224;11.470;2023-04-02T00:55:16;95265.66;;;7.88;65.06
44751;BME280;30477;48.224;11.470;2023-04-02T00:57:47;95270.28;;;7.84;65.10
44751;BME280;30477;48.224;11.470;2023-04-02T01:00:26;95270.28;;;7.84;65.08
44751;BME280;30477;48.224;11.470;2023-04-02T01:05:41;95268.03;;;7.71;65.10
44751;BME280;30477;48.224;11.470;2023-04-02T01:16:13;95273.44;;;7.68;65.48
44751;BME280;30477;48.224;11.470;2023-04-02T01:21:27;95279.22;;;7.52;65.51
44751;BME280;30477;48.224;11.470;2023-04-02T01:26:53;95278.09;;;7.55;65.71
44751;BME280;30477;48.224;11.470;2023-04-02T01:29:25;95282.69;;;7.61;65.77
44751;BME280;30477;48.224;11.470;2023-04-02T01:31:57;95290.81;;;7.66;65.66
44751;BME280;30477;48.224;11.470;2023-04-02T01:34:25;95292.53;;;7.76;65.66
44751;BME280;30477;48.224;11.470;2023-04-02T01:42:35;95293.28;;;7.58;65.71
44751;BME280;30477;48.224;11.470;2023-04-02T01:45:08;95289.88;;;7.58;65.99
44751;BME280;30477;48.224;11.470;2023-04-02T01:47:36;95300.47;;;7.55;65.95
44751;BME280;30477;48.224;11.470;2023-04-02T01:50:30;95299.25;;;7.49;66.25
44751;BME280;30477;48.224;11.470;2023-04-02T01:53:01;95308.34;;;7.53;66.11
44751;BME280;30477;48.224;11.470;2023-04-02T01:55:38;95301.03;;;7.58;66.36
44751;BME280;30477;48.224;11.470;2023-04-02T01:58:04;95303.06;;;7.45;66.31
44751;BME280;30477;48.224;11.470;2023-04-02T02:00:31;95304.59;;;7.38;66.33
44751;BME280;30477;48.224;11.470;2023-04-02T02:03:00;95302.16;;;7.36;66.27
44751;BME280;30477;48.224;11.470;2023-04-02T02:05:26;95308.09;;;7.37;66.88
44751;BME280;30477;48.224;11.470;2023-04-02T02:07:52;95303.38;;;7.42;66.64
44751;BME280;30477;48.224;11.470;2023-04-02T02:10:26;95316.09;;;7.43;66.84
44751;BME280;30477;48.224;11.470;2023-04-02T02:12:52;95315.69;;;7.48;66.45
44751;BME280;30477;48.224;11.470;2023-04-02T02:15:20;95316.63;;;7.47;66.64
44751;BME280;30477;48.224;11.470;2023-04-02T02:17:47;95322.06;;;7.44;66.64
44751;BME280;30477;48.224;11.470;2023-04-02T02:20:12;95320.72;;;7.40;66.81
44751;BME280;30477;48.224;11.470;2023-04-02T02:22:45;95333.59;;;7.40;66.85
44751;BME280;30477;48.224;11.470;2023-04-02T02:25:18;95325.56;;;7.43;67.18
44751;BME280;30477;48.224;11.470;2023-04-02T02:27:57;95328.56;;;7.48;66.95
44751;BME280;30477;48.224;11.470;2023-04-02T02:30:31;95330.19;;;7.39;67.07
44751;BME280;30477;48.224;11.470;2023-04-02T02:33:17;95327.88;;;7.46;66.94
44751;BME280;30477;48.224;11.470;2023-04-02T02:41:20;95339.00;;;7.37;67.13
44751;BME280;30477;48.224;11.470;2023-04-02T02:44:05;95351.06;;;7.46;67.40
44751;BME280;30477;48.224;11.470;2023-04-02T02:46:39;95346.28;;;7.51;67.18
44751;BME280;30477;48.224;11.470;2023-04-02T02:49:12;95357.81;;;7.47;66.91
44751;BME280;30477;48.224;11.470;2023-04-02T02:52:02;95359.28;;;7.49;66.96
44751;BME280;30477;48.224;11.470;2023-04-02T02:54:31;95352.00;;;7.45;67.01
44751;BME280;30477;48.224;11.470;2023-04-02T02:57:06;95363.75;;;7.47;67.05
44751;BME280;30477;48.224;11.470;2023-04-02T02:59:34;95360.38;;;7.47;66.80
44751;BME280;30477;48.224;11.470;2023-04-02T03:02:01;95364.47;;;7.40;67.02
44751;BME280;30477;48.224;11.470;2023-04-02T03:04:27;95357.28;;;7.34;67.12
44751;BME280;30477;48.224;11.470;2023-04-02T03:06:56;95369.50;;;7.31;67.01
44751;BME280;30477;48.224;11.470;2023-04-02T03:15:04;95366.78;;;7.23;67.36
44751;BME280;30477;48.224;11.470;2023-04-02T03:20:16;95363.81;;;7.18;67.23
44751;BME280;30477;48.224;11.470;2023-04-02T03:22:52;95371.13;;;7.13;67.45
44751;BME280;30477;48.224;11.470;2023-04-02T03:28:03;95381.03;;;7.08;67.66
44751;BME280;30477;48.224;11.470;2023-04-02T03:30:41;95378.44;;;7.08;67.72
44751;BME280;30477;48.224;11.470;2023-04-02T03:33:16;95380.06;;;7.09;67.90
44751;BME280;30477;48.224;11.470;2023-04-02T03:35:53;95384.41;;;7.08;67.70
44751;BME280;30477;48.224;11.470;2023-04-02T03:38:32;95388.75;;;7.08;68.07
44751;BME280;30477;48.224;11.470;2023-04-02T03:41:18;95392.25;;;7.07;67.78
44751;BME280;30477;48.224;11.470;2023-04-02T03:43:53;95397.94;;;7.01;68.03
44751;BME280;30477;48.224;11.470;2023-04-02T03:46:30;95394.41;;;7.02;68.16
44751;BME280;30477;48.224;11.470;2023-04-02T03:49:00;95400.66;;;7.09;68.05
44751;BME280;30477;48.224;11.470;2023-04-02T03:51:49;95396.84;;;7.03;67.92
44751;BME280;30477;48.224;11.470;2023-04-02T03:54:18;95406.88;;;7.06;68.00
44751;BME280;30477;48.224;11.470;2023-04-02T03:56:43;95396.19;;;7.11;68.03
44751;BME280;30477;48.224;11.470;2023-04-02T03:59:20;95400.66;;;7.09;68.04
44751;BME280;30477;48.224;11.470;2023-04-02T04:02:01;95402.53;;;7.07;67.88
44751;BME280;30477;48.224;11.470;2023-04-02T04:04:32;95405.78;;;7.09;67.99
44751;BME280;30477;48.224;11.470;2023-04-02T04:06:59;95402.53;;;7.07;67.74
44751;BME280;30477;48.224;11.470;2023-04-02T04:09:31;95408.22;;;7.01;67.94
44751;BME280;30477;48.224;11.470;2023-04-02T04:12:24;95406.44;;;7.01;68.06
44751;BME280;30477;48.224;11.470;2023-04-02T04:14:57;95411.47;;;7.03;68.03
44751;BME280;30477;48.224;11.470;2023-04-02T04:17:46;95410.13;;;7.08;68.07
44751;BME280;30477;48.224;11.470;2023-04-02T04:20:35;95414.47;;;7.08;68.00
44751;BME280;30477;48.224;11.470;2023-04-02T04:23:40;95419.31;;;6.91;67.98
44751;BME280;30477;48.224;11.470;2023-04-02T04:26:21;95419.47;;;7.00;68.32
44751;BME280;30477;48.224;11.470;2023-04-02T04:29:30;95434.50;;;7.04;68.24
44751;BME280;30477;48.224;11.470;2023-04-02T04:32:06;95432.88;;;6.94;68.12
44751;BME280;30477;48.224;11.470;2023-04-02T04:34:42;95435.44;;;7.03;68.12
44751;BME280;30477;48.224;11.470;2023-04-02T04:37:22;95444.50;;;7.07;67.98
44751;BME280;30477;48.224;11.470;2023-04-02T04:39:54;95438.28;;;7.00;67.92
44751;BME280;30477;48.224;11.470;2023-04-02T04:42:24;95442.88;;;6.97;68.05
44751;BME280;30477;48.224;11.470;2023-04-02T04:45:10;95451.03;;;7.02;67.97
44751;BME280;30477;48.224;11.470;2023-04-02T04:47:41;95452.91;;;7.00;68.07
44751;BME280;30477;48.224;11.470;2023-04-02T04:50:26;95451.84;;;7.02;67.91
44751;BME280;30477;48.224;11.470;2023-04-02T04:52:53;95453.44;;;7.03;67.93
44751;BME280;30477;48.224;11.470;2023-04-02T04:55:28;95468.34;;;7.09;67.81
44751;BME280;30477;48.224;11.470;2023-04-02T04:57:58;95467.31;;;7.12;67.98
44751;BME280;30477;48.224;11.470;2023-04-02T05:00:46;95462.94;;;7.03;67.97
44751;BME280;30477;48.224;11.470;2023-04-02T05:09:02;95474.59;;;7.07;67.95
44751;BME280;30477;48.224;11.470;2023-04-02T05:11:37;95478.13;;;7.06;68.10
44751;BME280;30477;48.224;11.470;2023-04-02T05:14:11;95474.59;;;6.97;67.83
44751;BME280;30477;48.224;11.470;2023-04-02T05:17:11;95481.34;;;6.98;68.18
44751;BME280;30477;48.224;11.470;2023-04-02T05:19:53;95479.31;;;7.11;68.05
44751;BME280;30477;48.224;11.470;2023-04-02T05:25:29;95489.63;;;7.02;67.88
44751;BME280;30477;48.224;11.470;2023-04-02T05:28:17;95495.44;;;7.04;68.03
44751;BME280;30477;48.224;11.470;2023-04-02T05:30:48;95508.31;;;7.04;68.05
44751;BME280;30477;48.224;11.470;2023-04-02T05:33:21;95506.28;;;7.07;68.03
44751;BME280;30477;48.224;11.470;2023-04-02T05:35:50;95510.44;;;6.99;67.65
44751;BME280;30477;48.224;11.470;2023-04-02T05:38:20;95508.41;;;6.93;67.95
44751;BME280;30477;48.224;11.470;2023-04-02T05:40:50;95507.59;;;6.92;68.30
44751;BME280;30477;48.224;11.470;2023-04-02T05:43:19;95521.31;;;7.02;68.05
44751;BME280;30477;48.224;11.470;2023-04-02T05:45:53;95516.97;;;6.93;68.08
44751;BME280;30477;48.224;11.470;2023-04-02T05:48:26;95511.66;;;6.85;68.43
44751;BME280;30477;48.224;11.470;2023-04-02T05:50:55;95521.22;;;6.73;68.33
44751;BME280;30477;48.224;11.470;2023-04-02T05:53:45;95518.91;;;6.70;68.98
44751;BME280;30477;48.224;11.470;2023-04-02T05:56:23;95523.25;;;6.79;69.04
44751;BME280;30477;48.224;11.470;2023-04-02T05:59:06;95524.34;;;6.86;68.99
44751;BME280;30477;48.224;11.470;2023-04-02T06:04:35;95534.25;;;6.81;68.85
44751;BME280;30477;48.224;11.470;2023-04-02T06:07:10;95529.50;;;6.86;68.87
44751;BME280;30477;48.224;11.470;2023-04-02T06:09:44;95532.00;;;6.98;68.95
44751;BME280;30477;48.224;11.470;2023-04-02T06:15:00;95538.41;;;7.13;68.64
44751;BME280;30477;48.224;11.470;2023-04-02T06:17:26;95542.34;;;7.17;68.39
44751;BME280;30477;48.224;11.470;2023-04-02T06:19:53;95542.91;;;7.21;68.14
44751;BME280;30477;48.224;11.470;2023-04-02T06:22:41;95550.56;;;7.11;68.48
44751;BME280;30477;48.224;11.470;2023-04-02T06:25:28;95548.41;;;7.06;68.15
44751;BME280;30477;48.224;11.470;2023-04-02T06:27:57;95546.31;;;6.90;68.44
44751;BME280;30477;48.224;11.470;2023-04-02T06:30:28;95560.38;;;6.86;68.97
44751;BME280;30477;48.224;11.470;2023-04-02T06:32:55;95558.94;;;7.03;68.83
44751;BME280;30477;48.224;11.470;2023-04-02T06:35:20;95563.03;;;7.06;69.00
44751;BME280;30477;48.224;11.470;2023-04-02T06:37:48;95564.53;;;7.08;68.68
44751;BME280;30477;48.224;11.470;2023-04-02T06:43:00;95568.59;;;7.11;68.83
44751;BME280;30477;48.224;11.470;2023-04-02T06:45:29;95573.22;;;7.17;68.57
44751;BME280;30477;48.224;11.470;2023-04-02T06:47:58;95582.41;;;7.10;68.70
44751;BME280;30477;48.224;11.470;2023-04-02T06:50:44;95590.53;;;7.15;69.05
44751;BME280;30477;48.224;11.470;2023-04-02T06:53:27;95588.53;;;7.19;69.06
44751;BME280;30477;48.224;11.470;2023-04-02T06:56:04;95601.94;;;7.22;68.97
44751;BME280;30477;48.224;11.470;2023-04-02T06:58:31;95607.34;;;7.19;68.90
44751;BME280;30477;48.224;11.470;2023-04-02T07:00:56;95605.06;;;7.16;69.08
44751;BME280;30477;48.224;11.470;2023-04-02T07:03:25;95603.84;;;7.20;69.08
44751;BME280;30477;48.224;11.470;2023-04-02T07:05:52;95605.75;;;7.18;68.90
44751;BME280;30477;48.224;11.470;2023-04-02T07:08:18;95611.56;;;7.20;69.09
44751;BME280;30477;48.224;11.470;2023-04-02T07:10:43;95612.38;;;7.21;69.23
44751;BME280;30477;48.224;11.470;2023-04-02T07:13:14;95618.38;;;7.31;69.28
44751;BME280;30477;48.224;11.470;2023-04-02T07:15:39;95619.47;;;7.38;69.25
44751;BME280;30477;48.224;11.470;2023-04-02T07:18:05;95630.59;;;7.39;69.13
44751;BME280;30477;48.224;11.470;2023-04-02T07:20:34;95628.16;;;7.47;69.25
44751;BME280;30477;48.224;11.470;2023-04-02T07:23:02;95631.44;;;7.49;68.94
44751;BME280;30477;48.224;11.470;2023-04-02T07:25:28;95630.78;;;7.57;68.88
44751;BME280;30477;48.224;11.470;2023-04-02T07:27:53;95634.88;;;7.69;69.18
44751;BME280;30477;48.224;11.470;2023-04-02T07:30:19;95627.00;;;7.70;68.70
44751;BME280;30477;48.224;11.470;2023-04-02T07:32:44;95634.03;;;7.68;68.57
44751;BME280;30477;48.224;11.470;2023-04-02T07:35:10;95633.91;;;7.60;68.57
44751;BME280;30477;48.224;11.470;2023-04-02T07:37:37;95639.47;;;7.65;68.73
44751;BME280;30477;48.224;11.470;2023-04-02T07:40:03;95640.56;;;7.63;68.81
44751;BME280;30477;48.224;11.470;2023-04-02T07:42:30;95638.94;;;7.71;68.82
44751;BME280;30477;48.224;11.470;2023-04-02T07:44:55;95636.53;;;7.80;69.01
44751;BME280;30477;48.224;11.470;2023-04-02T07:47:21;95643.69;;;7.76;68.61
44751;BME280;30477;48.224;11.470;2023-04-02T07:49:46;95647.06;;;7.77;68.52
44751;BME280;30477;48.224;11.470;2023-04-02T07:52:11;95653.31;;;7.74;68.41
44751;BME280;30477;48.224;11.470;2023-04-02T07:54:36;95647.06;;;7.77;68.70
44751;BME280;30477;48.224;11.470;2023-04-02T07:57:02;95655.25;;;7.82;68.73
44751;BME280;30477;48.224;11.470;2023-04-02T07:59:28;95656.75;;;7.94;68.72
44751;BME280;30477;48.224;11.470;2023-04-02T08:01:53;95668.25;;;8.00;68.53
44751;BME280;30477;48.224;11.470;2023-04-02T08:04:20;95658.78;;;8.00;68.58
44751;BME280;30477;48.224;11.470;2023-04-02T08:06:47;95668.81;;;8.03;68.41
44751;BME280;30477;48.224;11.470;2023-04-02T08:09:14;95666.25;;;8.03;68.04
44751;BME280;30477;48.224;11.470;2023-04-02T08:11:39;95672.38;;;8.02;68.37
44751;BME280;30477;48.224;11.470;2023-04-02T08:14:07;95679.56;;;8.08;68.34
44751;BME280;30477;48.224;11.470;2023-04-02T08:16:52;95669.25;;;8.18;68.24
44751;BME280;30477;48.224;11.470;2023-04-02T08:19:18;95668.97;;;8.31;68.11
44751;BME280;30477;48.224;11.470;2023-04-02T08:21:44;95681.31;;;8.37;68.06
44751;BME280;30477;48.224;11.470;2023-04-02T08:24:10;95677.13;;;8.36;67.38
44751;BME280;30477;48.224;11.470;2023-04-02T08:26:35;95682.97;;;8.48;67.53
44751;BME280;30477;48.224;11.470;2023-04-02T08:29:01;95677.44;;;8.52;67.20
44751;BME280;30477;48.224;11.470;2023-04-02T08:31:27;95682.44;;;8.64;66.98
44751;BME280;30477;48.224;11.470;2023-04-02T08:33:52;95681.88;;;8.60;66.87
44751;BME280;30477;48.224;11.470;2023-04-02T08:36:25;95689.63;;;8.70;66.89
44751;BME280;30477;48.224;11.470;2023-04-02T08:38:51;95691.13;;;8.82;67.01
44751;BME280;30477;48.224;11.470;2023-04-02T08:41:22;95699.75;;;9.01;66.26
44751;BME280;30477;48.224;11.470;2023-04-02T08:44:08;95700.84;;;9.08;66.34
44751;BME280;30477;48.224;11.470;2023-04-02T08:46:46;95693.91;;;9.08;65.55
44751;BME280;30477;48.224;11.470;2023-04-02T08:49:16;95695.06;;;9.24;65.28
44751;BME280;30477;48.224;11.470;2023-04-02T08:51:43;95700.75;;;9.37;65.57
44751;BME280;30477;48.224;11.470;2023-04-02T08:54:30;95696.41;;;9.93;65.70
44751;BME280;30477;48.224;11.470;2023-04-02T08:57:01;95700.56;;;10.31;65.30
44751;BME280;30477;48.224;11.470;2023-04-02T08:59:34;95705.59;;;10.69;64.51
44751;BME280;30477;48.224;11.470;2023-04-02T09:02:15;95699.38;;;10.80;62.87
44751;BME280;30477;48.224;11.470;2023-04-02T09:04:45;95708.91;;;10.43;61.57
44751;BME280;30477;48.224;11.470;2023-04-02T09:07:12;95713.44;;;10.13;61.78
44751;BME280;30477;48.224;11.470;2023-04-02T09:09:41;95711.28;;;10.09;62.10
44751;BME280;30477;48.224;11.470;2023-04-02T09:12:34;95712.97;;;10.00;62.17
44751;BME280;30477;48.224;11.470;2023-04-02T09:15:16;95711.91;;;9.93;62.21
44751;BME280;30477;48.224;11.470;2023-04-02T09:17:47;95713.94;;;9.99;62.96
44751;BME280;30477;48.224;11.470;2023-04-02T09:22:46;95724.31;;;10.17;61.98
44751;BME280;30477;48.224;11.470;2023-04-02T09:25:27;95723.72;;;10.23;62.39
44751;BME280;30477;48.224;11.470;2023-04-02T09:27:55;95731.75;;;10.30;62.27
44751;BME280;30477;48.224;11.470;2023-04-02T09:33:03;95735.28;;;10.01;62.05
44751;BME280;30477;48.224;11.470;2023-04-02T09:38:25;95744.28;;;9.97;62.23
44751;BME280;30477;48.224;11.470;2023-04-02T09:41:02;95744.16;;;9.99;62.26
44751;BME280;30477;48.224;11.470;2023-04-02T09:43:36;95752.13;;;10.05;62.13
44751;BME280;30477;48.224;11.470;2023-04-02T09:46:22;95745.03;;;10.07;61.84
44751;BME280;30477;48.224;11.470;2023-04-02T09:48:52;95749.28;;;10.08;62.04
44751;BME280;30477;48.224;11.470;2023-04-02T09:51:26;95749.06;;;10.29;62.14
44751;BME280;30477;48.224;11.470;2023-04-02T09:56:26;95751.72;;;10.38;61.64
44751;BME280;30477;48.224;11.470;2023-04-02T09:59:14;95755.78;;;10.40;61.25
44751;BME280;30477;48.224;11.470;2023-04-02T10:01:59;95747.94;;;10.32;60.98
44751;BME280;30477;48.224;11.470;2023-04-02T10:04:43;95754.44;;;10.36;61.54
44751;BME280;30477;48.224;11.470;2023-04-02T10:13:20;95761.25;;;10.73;61.04
44751;BME280;30477;48.224;11.470;2023-04-02T10:18:54;95753.16;;;11.12;59.84
44751;BME280;30477;48.224;11.470;2023-04-02T10:21:25;95753.97;;;11.12;59.35
44751;BME280;30477;48.224;11.470;2023-04-02T10:23:51;95754.88;;;10.85;59.33
44751;BME280;30477;48.224;11.470;2023-04-02T10:26:34;95751.16;;;10.80;59.79
44751;BME280;30477;48.224;11.470;2023-04-02T10:34:49;95764.97;;;10.70;59.99
44751;BME280;30477;48.224;11.470;2023-04-02T10:40:27;95765.97;;;10.95;60.67
44751;BME280;30477;48.224;11.470;2023-04-02T10:43:21;95764.22;;;10.78;60.07
44751;BME280;30477;48.224;11.470;2023-04-02T10:48:31;95775.47;;;10.69;60.32
44751;BME280;30477;48.224;11.470;2023-04-02T10:51:11;95771.91;;;10.70;60.54
44751;BME280;30477;48.224;11.470;2023-04-02T10:53:41;95775.00;;;10.55;60.20
44751;BME280;30477;48.224;11.470;2023-04-02T10:56:11;95776.84;;;10.45;60.13
44751;BME280;30477;48.224;11.470;2023-04-02T10:59:12;95776.94;;;10.53;60.59
44751;BME280;30477;48.224;11.470;2023-04-02T11:01:41;95782.50;;;10.59;60.57
44751;BME280;30477;48.224;11.470;2023-04-02T11:04:17;95791.88;;;10.60;60.69
44751;BME280;30477;48.224;11.470;2023-04-02T11:07:06;95794.25;;;10.71;60.96
44751;BME280;30477;48.224;11.470;2023-04-02T11:09:36;95798.25;;;10.83;60.45
44751;BME280;30477;48.224;11.470;2023-04-02T11:12:03;95801.13;;;10.80;60.78
44751;BME280;30477;48.224;11.470;2023-04-02T11:14:31;95801.06;;;10.90;60.93
44751;BME280;30477;48.224;11.470;2023-04-02T11:16:59;95794.84;;;11.01;61.11
44751;BME280;30477;48.224;11.470;2023-04-02T11:19:27;95801.19;;;11.24;61.63
44751;BME280;30477;48.224;11.470;2023-04-02T11:26:48;95801.91;;;11.34;60.24
44751;BME280;30477;48.224;11.470;2023-04-02T11:31:43;95807.22;;;11.33;59.89
44751;BME280;30477;48.224;11.470;2023-04-02T11:34:57;95802.78;;;11.25;59.68
44751;BME280;30477;48.224;11.470;2023-04-02T11:37:02;95800.25;;;11.33;59.97
44751;BME280;30477;48.224;11.470;2023-04-02T11:39:54;95802.19;;;11.31;59.61
44751;BME280;30477;48.224;11.470;2023-04-02T11:42:31;95810.75;;;11.50;59.59
44751;BME280;30477;48.224;11.470;2023-04-02T11:53:21;95806.78;;;11.37;57.21
44751;BME280;30477;48.224;11.470;2023-04-02T12:03:52;95807.00;;;11.70;57.57
44751;BME280;30477;48.224;11.470;2023-04-02T12:09:23;95812.47;;;11.41;57.90
44751;BME280;30477;48.224;11.470;2023-04-02T12:11:50;95816.34;;;11.37;58.33
44751;BME280;30477;48.224;11.470;2023-04-02T12:14:42;95822.31;;;11.37;58.85
44751;BME280;30477;48.224;11.470;2023-04-02T12:17:20;95824.78;;;11.65;58.57
44751;BME280;30477;48.224;11.470;2023-04-02T12:19:51;95828.13;;;11.84;58.38
44751;BME280;30477;48.224;11.470;2023-04-02T12:22:19;95826.69;;;11.55;58.65
44751;BME280;30477;48.224;11.470;2023-04-02T12:24:47;95833.16;;;11.33;59.19
44751;BME280;30477;48.224;11.470;2023-04-02T12:27:18;95837.38;;;11.16;60.09
44751;BME280;30477;48.224;11.470;2023-04-02T12:29:48;95843.66;;;10.95;60.75
44751;BME280;30477;48.224;11.470;2023-04-02T12:32:26;95850.53;;;10.69;61.69
44751;BME280;30477;48.224;11.470;2023-04-02T12:34:53;95851.31;;;10.51;63.01
44751;BME280;30477;48.224;11.470;2023-04-02T12:37:27;95847.19;;;10.59;63.42
44751;BME280;30477;48.224;11.470;2023-04-02T12:40:12;95853.22;;;10.49;63.76
44751;BME280;30477;48.224;11.470;2023-04-02T12:42:40;95860.31;;;10.47;64.26
44751;BME280;30477;48.224;11.470;2023-04-02T12:45:06;95857.59;;;10.49;65.16
44751;BME280;30477;48.224;11.470;2023-04-02T12:47:44;95865.78;;;10.44;65.72
44751;BME280;30477;48.224;11.470;2023-04-02T12:50:12;95862.19;;;10.55;66.25
44751;BME280;30477;48.224;11.470;2023-04-02T12:52:43;95864.63;;;10.56;66.10
44751;BME280;30477;48.224;11.470;2023-04-02T12:55:18;95860.91;;;10.69;66.88
44751;BME280;30477;48.224;11.470;2023-04-02T12:57:44;95867.00;;;10.68;67.05
44751;BME280;30477;48.224;11.470;2023-04-02T13:05:53;95866.81;;;10.51;68.82
44751;BME280;30477;48.224;11.470;2023-04-02T13:08:28;95870.97;;;10.44;68.86
44751;BME280;30477;48.224;11.470;2023-04-02T13:10:58;95871.88;;;10.15;69.07
44751;BME280;30477;48.224;11.470;2023-04-02T13:13:27;95870.84;;;9.99;69.64
44751;BME280;30477;48.224;11.470;2023-04-02T13:16:05;95875.75;;;10.02;69.86
44751;BME280;30477;48.224;11.470;2023-04-02T13:18:32;95872.72;;;10.06;69.95
44751;BME280;30477;48.224;11.470;2023-04-02T13:21:00;95875.69;;;10.11;70.14
44751;BME280;30477;48.224;11.470;2023-04-02T13:23:33;95872.53;;;10.18;70.63
44751;BME280;30477;48.224;11.470;2023-04-02T13:28:35;95877.16;;;10.14;70.75
44751;BME280;30477;48.224;11.470;2023-04-02T13:31:00;95879.47;;;10.27;70.87
44751;BME280;30477;48.224;11.470;2023-04-02T13:33:26;95881.38;;;10.25;70.75
44751;BME280;30477;48.224;11.470;2023-04-02T13:35:51;95879.06;;;10.31;70.83
44751;BME280;30477;48.224;11.470;2023-04-02T13:38:16;95881.66;;;10.12;70.25
44751;BME280;30477;48.224;11.470;2023-04-02T13:40:42;95883.75;;;10.08;71.01
44751;BME280;30477;48.224;11.470;2023-04-02T13:43:17;95886.88;;;10.02;71.18
44751;BME280;30477;48.224;11.470;2023-04-02T13:45:46;95886.09;;;10.02;71.66
44751;BME280;30477;48.224;11.470;2023-04-02T13:48:13;95886.78;;;9.94;71.22
44751;BME280;30477;48.224;11.470;2023-04-02T13:50:40;95887.72;;;9.93;71.56
44751;BME280;30477;48.224;11.470;2023-04-02T13:53:10;95886.59;;;10.05;71.74
44751;BME280;30477;48.224;11.470;2023-04-02T13:55:39;95887.16;;;9.99;71.57
44751;BME280;30477;48.224;11.470;2023-04-02T13:58:05;95892.13;;;9.83;71.47
44751;BME280;30477;48.224;11.470;2023-04-02T14:00:31;95890.84;;;9.87;71.52
44751;BME280;30477;48.224;11.470;2023-04-02T14:03:03;95887.50;;;9.77;72.04
44751;BME280;30477;48.224;11.470;2023-04-02T14:05:41;95893.72;;;9.84;72.57
44751;BME280;30477;48.224;11.470;2023-04-02T14:08:24;95895.34;;;9.85;72.00
44751;BME280;30477;48.224;11.470;2023-04-02T14:11:02;95903.53;;;9.90;72.17
44751;BME280;30477;48.224;11.470;2023-04-02T14:13:43;95908.41;;;9.93;72.27
44751;BME280;30477;48.224;11.470;2023-04-02T14:16:38;95908.38;;;10.03;72.23
44751;BME280;30477;48.224;11.470;2023-04-02T14:19:15;95924.44;;;9.96;71.97
44751;BME280;30477;48.224;11.470;2023-04-02T14:30:00;95927.56;;;8.83;72.90
44751;BME280;30477;48.224;11.470;2023-04-02T14:32:39;95932.84;;;8.72;73.06
44751;BME280;30477;48.224;11.470;2023-04-02T14:35:20;95940.16;;;8.67;73.46
44751;BME280;30477;48.224;11.470;2023-04-02T14:40:49;95938.81;;;8.72;74.29
44751;BME280;30477;48.224;11.470;2023-04-02T14:46:01;95936.81;;;8.86;74.65
44751;BME280;30477;48.224;11.470;2023-04-02T14:48:40;95942.00;;;8.96;74.94
44751;BME280;30477;48.224;11.470;2023-04-02T14:56:23;95946.72;;;8.81;74.97
44751;BME280;30477;48.224;11.470;2023-04-02T14:59:00;95951.63;;;8.93;75.36
44751;BME280;30477;48.224;11.470;2023-04-02T15:01:35;95951.41;;;9.06;75.13
44751;BME280;30477;48.224;11.470;2023-04-02T15:04:07;95953.84;;;9.08;75.53
44751;BME280;30477;48.224;11.470;2023-04-02T15:06:40;95956.97;;;9.02;75.49
44751;BME280;30477;48.224;11.470;2023-04-02T15:09:11;95960.22;;;9.04;75.47
44751;BME280;30477;48.224;11.470;2023-04-02T15:11:47;95961.72;;;8.97;75.42
44751;BME280;30477;48.224;11.470;2023-04-02T15:16:44;95958.13;;;8.78;75.96
44751;BME280;30477;48.224;11.470;2023-04-02T15:19:12;95964.13;;;8.88;76.21
44751;BME280;30477;48.224;11.470;2023-04-02T15:29:41;95978.63;;;8.80;75.82
44751;BME280;30477;48.224;11.470;2023-04-02T15:35:53;95988.81;;;8.81;75.88
44751;BME280;30477;48.224;11.470;2023-04-02T15:38:00;95994.03;;;8.50;75.77
44751;BME280;30477;48.224;11.470;2023-04-02T15:40:40;95999.31;;;8.38;76.09
44751;BME280;30477;48.224;11.470;2023-04-02T15:43:22;95998.13;;;8.11;76.05
44751;BME280;30477;48.224;11.470;2023-04-02T15:45:56;96004.50;;;8.17;76.59
44751;BME280;30477;48.224;11.470;2023-04-02T15:57:19;96022.44;;;7.97;77.02
44751;BME280;30477;48.224;11.470;2023-04-02T16:11:35;96032.72;;;7.76;77.60
44751;BME280;30477;48.224;11.470;2023-04-02T16:14:19;96046.19;;;7.68;77.55
44751;BME280;30477;48.224;11.470;2023-04-02T16:16:47;96044.47;;;7.69;78.04
44751;BME280;30477;48.224;11.470;2023-04-02T16:19:23;96055.81;;;7.66;77.99
44751;BME280;30477;48.224;11.470;2023-04-02T16:21:57;96053.00;;;7.69;78.29
44751;BME280;30477;48.224;11.470;2023-04-02T16:24:25;96054.38;;;7.73;78.12
44751;BME280;30477;48.224;11.470;2023-04-02T16:29:59;96056.00;;;7.86;77.96
44751;BME280;30477;48.224;11.470;2023-04-02T16:35:44;96073.59;;;7.69;77.55